createdAt,value
2023-01-21T00:00:31.794Z,1023.736175028
2023-01-21T00:01:31.769Z,1023.837766392
2023-01-21T00:02:31.796Z,1023.736175028
2023-01-21T00:03:31.773Z,1023.837766392
2023-01-21T00:04:31.737Z,1023.837766392
2023-01-21T00:05:31.795Z,1023.736175028
2023-01-21T00:06:31.756Z,1023.9393577559999
2023-01-21T00:07:31.729Z,1023.634583664
2023-01-21T00:08:32.723Z,1023.9393577559999
2023-01-21T00:09:32.818Z,1023.837766392
2023-01-21T00:10:32.780Z,1023.736175028
2023-01-21T00:11:32.786Z,1023.634583664
2023-01-21T00:12:32.733Z,1023.9393577559999
2023-01-21T00:13:32.782Z,1024.007085332
2023-01-21T00:14:32.760Z,1023.9393577559999
2023-01-21T00:15:32.899Z,1023.9393577559999
2023-01-21T00:16:32.737Z,1023.9393577559999
2023-01-21T00:17:32.807Z,1024.007085332
2023-01-21T00:18:32.777Z,1024.007085332
2023-01-21T00:19:32.752Z,1023.736175028
2023-01-21T00:20:32.748Z,1024.007085332
2023-01-21T00:21:32.781Z,1023.837766392
2023-01-21T00:22:32.783Z,1023.837766392
2023-01-21T00:23:32.730Z,1023.9393577559999
2023-01-21T00:24:32.747Z,1024.007085332
2023-01-21T00:25:32.755Z,1024.21026806
2023-01-21T00:26:32.787Z,1024.108676696
2023-01-21T00:27:32.792Z,1023.9393577559999
2023-01-21T00:28:32.776Z,1024.108676696
2023-01-21T00:29:32.782Z,1023.9393577559999
2023-01-21T00:30:32.784Z,1024.108676696
2023-01-21T00:31:32.835Z,1024.108676696
2023-01-21T00:32:32.751Z,1024.108676696
2023-01-21T00:33:32.742Z,1024.007085332
2023-01-21T00:34:32.764Z,1024.007085332
2023-01-21T00:35:32.762Z,1024.311859424
2023-01-21T00:36:32.753Z,1024.007085332
2023-01-21T00:37:32.790Z,1024.007085332
2023-01-21T00:38:32.773Z,1024.108676696
2023-01-21T00:39:32.756Z,1024.21026806
2023-01-21T00:40:32.782Z,1024.108676696
2023-01-21T00:41:32.831Z,1023.9393577559999
2023-01-21T00:42:32.754Z,1024.108676696
2023-01-21T00:43:32.795Z,1024.21026806
2023-01-21T00:44:32.729Z,1024.108676696
2023-01-21T00:45:32.786Z,1024.108676696
2023-01-21T00:46:32.841Z,1024.311859424
2023-01-21T00:47:32.748Z,1024.21026806
2023-01-21T00:48:32.756Z,1024.5150421520002
2023-01-21T00:49:32.790Z,1024.21026806
2023-01-21T00:50:32.888Z,1024.108676696
2023-01-21T00:51:32.731Z,1024.21026806
2023-01-21T00:52:32.741Z,1024.21026806
2023-01-21T00:53:32.817Z,1024.108676696
2023-01-21T00:54:32.759Z,1024.21026806
2023-01-21T00:55:32.755Z,1024.311859424
2023-01-21T00:56:32.749Z,1024.21026806
2023-01-21T00:57:32.791Z,1024.311859424
2023-01-21T00:58:32.773Z,1024.616633516
2023-01-21T00:59:32.745Z,1024.311859424
2023-01-21T01:00:32.730Z,1024.413450788
2023-01-21T01:01:32.778Z,1024.108676696
2023-01-21T01:02:32.822Z,1024.311859424
2023-01-21T01:03:32.749Z,1024.5150421520002
2023-01-21T01:04:32.786Z,1024.5150421520002
2023-01-21T01:05:32.732Z,1024.413450788
2023-01-21T01:06:32.774Z,1024.311859424
2023-01-21T01:07:32.735Z,1024.5150421520002
2023-01-21T01:08:32.783Z,1024.616633516
2023-01-21T01:09:32.780Z,1024.616633516
2023-01-21T01:10:32.853Z,1024.413450788
2023-01-21T01:11:32.762Z,1024.616633516
2023-01-21T01:12:32.801Z,1024.413450788
2023-01-21T01:13:32.779Z,1024.616633516
2023-01-21T01:14:32.764Z,1024.413450788
2023-01-21T01:15:32.770Z,1024.5150421520002
2023-01-21T01:16:32.751Z,1024.5150421520002
2023-01-21T01:17:32.757Z,1024.5150421520002
2023-01-21T01:18:32.777Z,1024.413450788
2023-01-21T01:19:32.753Z,1024.5150421520002
2023-01-21T01:20:32.731Z,1024.5150421520002
2023-01-21T01:21:32.744Z,1024.413450788
2023-01-21T01:22:32.938Z,1024.5150421520002
2023-01-21T01:23:32.741Z,1024.616633516
2023-01-21T01:24:32.743Z,1024.616633516
2023-01-21T01:25:32.769Z,1024.71822488
2023-01-21T01:26:32.765Z,1024.71822488
2023-01-21T01:27:32.768Z,1024.71822488
2023-01-21T01:28:32.728Z,1024.71822488
2023-01-21T01:29:32.771Z,1024.71822488
2023-01-21T01:30:32.771Z,1024.71822488
2023-01-21T01:31:32.737Z,1024.71822488
2023-01-21T01:32:32.712Z,1024.71822488
2023-01-21T01:33:32.744Z,1024.5150421520002
2023-01-21T01:34:32.725Z,1024.819816244
2023-01-21T01:35:32.726Z,1024.9214076079998
2023-01-21T01:36:32.737Z,1024.71822488
2023-01-21T01:37:32.708Z,1024.71822488
2023-01-21T01:38:32.721Z,1024.9214076079998
2023-01-21T01:39:32.692Z,1024.71822488
2023-01-21T01:40:32.847Z,1024.71822488
2023-01-21T01:41:32.894Z,1025.0229989719999
2023-01-21T01:42:32.915Z,1024.71822488
2023-01-21T01:43:32.838Z,1024.819816244
2023-01-21T01:44:32.891Z,1024.9214076079998
2023-01-21T01:45:32.948Z,1024.819816244
2023-01-21T01:46:33.024Z,1025.0229989719999
2023-01-21T01:47:32.901Z,1024.71822488
2023-01-21T01:48:32.885Z,1024.9214076079998
2023-01-21T01:49:32.949Z,1024.819816244
2023-01-21T01:50:32.900Z,1025.0229989719999
2023-01-21T01:51:32.955Z,1024.819816244
2023-01-21T01:52:32.882Z,1024.819816244
2023-01-21T01:53:32.936Z,1024.9214076079998
2023-01-21T01:54:32.851Z,1025.0229989719999
2023-01-21T01:55:32.941Z,1024.9214076079998
2023-01-21T01:56:32.797Z,1024.9214076079998
2023-01-21T01:57:32.791Z,1024.9214076079998
2023-01-21T01:58:32.803Z,1024.819816244
2023-01-21T01:59:32.757Z,1024.9214076079998
2023-01-21T02:00:32.788Z,1024.9214076079998
2023-01-21T02:01:32.853Z,1025.0229989719999
2023-01-21T02:02:32.816Z,1025.124590336
2023-01-21T02:03:32.827Z,1025.0229989719999
2023-01-21T02:04:32.722Z,1025.327773064
2023-01-21T02:05:32.857Z,1025.124590336
2023-01-21T02:06:32.774Z,1025.2261816999999
2023-01-21T02:07:32.773Z,1025.124590336
2023-01-21T02:08:32.783Z,1025.2261816999999
2023-01-21T02:09:32.761Z,1025.124590336
2023-01-21T02:10:32.837Z,1025.2261816999999
2023-01-21T02:11:32.793Z,1025.2261816999999
2023-01-21T02:12:32.783Z,1025.2261816999999
2023-01-21T02:13:32.798Z,1025.4293644279999
2023-01-21T02:14:32.818Z,1025.327773064
2023-01-21T02:15:32.730Z,1025.530955792
2023-01-21T02:16:32.782Z,1025.327773064
2023-01-21T02:17:32.768Z,1025.4293644279999
2023-01-21T02:18:32.808Z,1025.2261816999999
2023-01-21T02:19:32.746Z,1025.124590336
2023-01-21T02:20:32.786Z,1025.2261816999999
2023-01-21T02:21:32.834Z,1025.2261816999999
2023-01-21T02:22:32.819Z,1025.2261816999999
2023-01-21T02:23:32.753Z,1025.327773064
2023-01-21T02:24:32.763Z,1025.327773064
2023-01-21T02:25:32.788Z,1025.327773064
2023-01-21T02:26:32.795Z,1025.4293644279999
2023-01-21T02:27:32.816Z,1025.530955792
2023-01-21T02:28:32.879Z,1025.2261816999999
2023-01-21T02:29:32.805Z,1025.530955792
2023-01-21T02:30:32.834Z,1025.4293644279999
2023-01-21T02:31:32.810Z,1025.2261816999999
2023-01-21T02:32:32.789Z,1025.4293644279999
2023-01-21T02:33:32.826Z,1025.6325471559999
2023-01-21T02:34:32.803Z,1025.4293644279999
2023-01-21T02:35:32.725Z,1025.530955792
2023-01-21T02:36:32.769Z,1025.327773064
2023-01-21T02:37:32.765Z,1025.4293644279999
2023-01-21T02:38:32.804Z,1025.4293644279999
2023-01-21T02:39:32.730Z,1025.6325471559999
2023-01-21T02:40:32.766Z,1025.4293644279999
2023-01-21T02:41:32.776Z,1025.6325471559999
2023-01-21T02:42:32.804Z,1025.530955792
2023-01-21T02:43:32.762Z,1025.6325471559999
2023-01-21T02:44:32.779Z,1025.530955792
2023-01-21T02:45:32.756Z,1025.6325471559999
2023-01-21T02:46:32.845Z,1025.530955792
2023-01-21T02:47:32.853Z,1025.4293644279999
2023-01-21T02:48:32.783Z,1025.6325471559999
2023-01-21T02:49:32.801Z,1025.4293644279999
2023-01-21T02:50:32.788Z,1025.6325471559999
2023-01-21T02:51:32.749Z,1025.835729884
2023-01-21T02:52:32.772Z,1026.0389126119999
2023-01-21T02:53:32.785Z,1025.835729884
2023-01-21T02:54:32.775Z,1025.937321248
2023-01-21T02:55:32.864Z,1025.835729884
2023-01-21T02:56:32.761Z,1025.73413852
2023-01-21T02:57:32.786Z,1025.937321248
2023-01-21T02:58:32.804Z,1025.937321248
2023-01-21T02:59:32.739Z,1025.835729884
2023-01-21T03:00:32.783Z,1026.0389126119999
2023-01-21T03:01:32.946Z,1026.0389126119999
2023-01-21T03:02:32.763Z,1025.937321248
2023-01-21T03:03:32.724Z,1025.73413852
2023-01-21T03:04:32.865Z,1026.0389126119999
2023-01-21T03:05:32.783Z,1026.140503976
2023-01-21T03:06:32.715Z,1025.835729884
2023-01-21T03:07:32.835Z,1025.937321248
2023-01-21T03:08:32.800Z,1026.0389126119999
2023-01-21T03:09:32.808Z,1026.0389126119999
2023-01-21T03:10:32.751Z,1026.0389126119999
2023-01-21T03:11:32.913Z,1025.835729884
2023-01-21T03:12:32.775Z,1026.0389126119999
2023-01-21T03:13:32.947Z,1025.937321248
2023-01-21T03:14:32.753Z,1026.0389126119999
2023-01-21T03:15:32.811Z,1026.0389126119999
2023-01-21T03:16:32.846Z,1025.937321248
2023-01-21T03:17:33.781Z,1026.140503976
2023-01-21T03:18:32.886Z,1025.835729884
2023-01-21T03:19:32.817Z,1026.140503976
2023-01-21T03:20:32.877Z,1026.0389126119999
2023-01-21T03:21:32.848Z,1026.140503976
2023-01-21T03:22:32.746Z,1025.835729884
2023-01-21T03:23:32.808Z,1026.208231552
2023-01-21T03:24:32.837Z,1026.140503976
2023-01-21T03:25:32.899Z,1026.140503976
2023-01-21T03:26:32.849Z,1026.208231552
2023-01-21T03:27:32.928Z,1026.208231552
2023-01-21T03:28:32.789Z,1026.140503976
2023-01-21T03:29:32.919Z,1026.309822916
2023-01-21T03:30:32.963Z,1026.41141428
2023-01-21T03:31:32.867Z,1026.0389126119999
2023-01-21T03:32:32.847Z,1026.309822916
2023-01-21T03:33:32.909Z,1026.208231552
2023-01-21T03:34:32.783Z,1026.309822916
2023-01-21T03:35:32.783Z,1026.140503976
2023-01-21T03:36:32.941Z,1026.208231552
2023-01-21T03:37:32.780Z,1026.309822916
2023-01-21T03:38:32.816Z,1026.309822916
2023-01-21T03:39:32.946Z,1026.140503976
2023-01-21T03:40:32.919Z,1026.208231552
2023-01-21T03:41:32.773Z,1026.41141428
2023-01-21T03:42:32.850Z,1026.208231552
2023-01-21T03:43:32.811Z,1026.208231552
2023-01-21T03:44:32.876Z,1026.513005644
2023-01-21T03:45:32.839Z,1026.309822916
2023-01-21T03:46:32.888Z,1026.309822916
2023-01-21T03:47:32.852Z,1026.309822916
2023-01-21T03:48:32.758Z,1026.309822916
2023-01-21T03:49:32.735Z,1026.41141428
2023-01-21T03:50:32.940Z,1026.41141428
2023-01-21T03:51:32.927Z,1026.513005644
2023-01-21T03:52:32.755Z,1026.614597008
2023-01-21T03:53:32.758Z,1026.309822916
2023-01-21T03:54:32.777Z,1026.41141428
2023-01-21T03:55:32.782Z,1026.7161883719998
2023-01-21T03:56:32.771Z,1026.513005644
2023-01-21T03:57:32.736Z,1026.614597008
2023-01-21T03:58:32.737Z,1026.41141428
2023-01-21T03:59:32.806Z,1026.7161883719998
2023-01-21T04:00:32.761Z,1026.7161883719998
2023-01-21T04:01:32.736Z,1026.513005644
2023-01-21T04:02:32.827Z,1026.513005644
2023-01-21T04:03:32.786Z,1026.7161883719998
2023-01-21T04:04:32.754Z,1026.614597008
2023-01-21T04:05:32.741Z,1026.614597008
2023-01-21T04:06:32.950Z,1026.817779736
2023-01-21T04:07:32.749Z,1026.7161883719998
2023-01-21T04:08:32.788Z,1026.513005644
2023-01-21T04:09:32.754Z,1026.614597008
2023-01-21T04:10:32.740Z,1026.7161883719998
2023-01-21T04:11:32.768Z,1026.7161883719998
2023-01-21T04:12:32.765Z,1026.9193711
2023-01-21T04:13:32.840Z,1026.7161883719998
2023-01-21T04:14:32.728Z,1026.7161883719998
2023-01-21T04:15:32.756Z,1026.817779736
2023-01-21T04:16:32.809Z,1026.817779736
2023-01-21T04:17:32.751Z,1026.817779736
2023-01-21T04:18:32.751Z,1026.817779736
2023-01-21T04:19:32.792Z,1026.817779736
2023-01-21T04:20:32.787Z,1026.9193711
2023-01-21T04:21:32.757Z,1026.817779736
2023-01-21T04:22:32.728Z,1027.122553828
2023-01-21T04:23:32.772Z,1027.122553828
2023-01-21T04:24:34.602Z,1027.020962464
2023-01-21T04:25:32.742Z,1027.122553828
2023-01-21T04:26:32.714Z,1027.122553828
2023-01-21T04:27:32.781Z,1027.122553828
2023-01-21T04:28:32.782Z,1026.817779736
2023-01-21T04:29:32.818Z,1027.020962464
2023-01-21T04:30:32.813Z,1027.122553828
2023-01-21T04:31:32.835Z,1027.224145192
2023-01-21T04:32:32.786Z,1027.122553828
2023-01-21T04:33:32.758Z,1027.122553828
2023-01-21T04:34:32.763Z,1027.020962464
2023-01-21T04:35:32.747Z,1027.122553828
2023-01-21T04:36:32.770Z,1027.020962464
2023-01-21T04:37:32.757Z,1027.224145192
2023-01-21T04:38:32.732Z,1027.122553828
2023-01-21T04:39:33.004Z,1027.224145192
2023-01-21T04:40:32.761Z,1027.325736556
2023-01-21T04:41:32.816Z,1027.122553828
2023-01-21T04:42:32.736Z,1027.224145192
2023-01-21T04:43:32.787Z,1027.224145192
2023-01-21T04:44:32.786Z,1027.224145192
2023-01-21T04:45:32.747Z,1027.224145192
2023-01-21T04:46:32.721Z,1027.020962464
2023-01-21T04:47:32.735Z,1027.122553828
2023-01-21T04:48:32.771Z,1027.42732792
2023-01-21T04:49:32.760Z,1027.122553828
2023-01-21T04:50:32.730Z,1027.42732792
2023-01-21T04:51:32.807Z,1027.224145192
2023-01-21T04:52:32.799Z,1027.224145192
2023-01-21T04:53:32.754Z,1027.325736556
2023-01-21T04:54:32.857Z,1027.224145192
2023-01-21T04:55:32.761Z,1027.42732792
2023-01-21T04:56:32.798Z,1027.42732792
2023-01-21T04:57:32.768Z,1027.224145192
2023-01-21T04:58:32.731Z,1027.325736556
2023-01-21T04:59:32.750Z,1027.325736556
2023-01-21T05:00:32.752Z,1027.528919284
2023-01-21T05:01:32.738Z,1027.325736556
2023-01-21T05:02:32.775Z,1027.42732792
2023-01-21T05:03:32.789Z,1027.325736556
2023-01-21T05:04:32.741Z,1027.528919284
2023-01-21T05:05:32.714Z,1027.325736556
2023-01-21T05:06:32.692Z,1027.42732792
2023-01-21T05:07:32.768Z,1027.528919284
2023-01-21T05:08:32.727Z,1027.325736556
2023-01-21T05:09:32.735Z,1027.528919284
2023-01-21T05:10:32.731Z,1027.325736556
2023-01-21T05:11:32.774Z,1027.42732792
2023-01-21T05:12:32.715Z,1027.42732792
2023-01-21T05:13:32.746Z,1027.42732792
2023-01-21T05:14:32.738Z,1027.42732792
2023-01-21T05:15:32.830Z,1027.6305106480002
2023-01-21T05:16:32.713Z,1027.528919284
2023-01-21T05:17:32.711Z,1027.732102012
2023-01-21T05:18:32.716Z,1027.42732792
2023-01-21T05:19:32.784Z,1027.732102012
2023-01-21T05:20:32.712Z,1027.528919284
2023-01-21T05:21:32.752Z,1027.6305106480002
2023-01-21T05:22:32.710Z,1027.528919284
2023-01-21T05:23:32.728Z,1027.833693376
2023-01-21T05:24:32.748Z,1027.833693376
2023-01-21T05:25:32.734Z,1027.528919284
2023-01-21T05:26:32.727Z,1027.732102012
2023-01-21T05:27:32.743Z,1027.6305106480002
2023-01-21T05:28:32.698Z,1027.732102012
2023-01-21T05:29:32.726Z,1027.6305106480002
2023-01-21T05:30:32.783Z,1027.833693376
2023-01-21T05:31:32.939Z,1027.93528474
2023-01-21T05:32:32.731Z,1027.732102012
2023-01-21T05:33:32.740Z,1027.93528474
2023-01-21T05:34:32.766Z,1027.833693376
2023-01-21T05:35:32.753Z,1027.833693376
2023-01-21T05:36:32.719Z,1027.93528474
2023-01-21T05:37:32.747Z,1028.036876104
2023-01-21T05:38:32.720Z,1028.036876104
2023-01-21T05:39:32.762Z,1027.833693376
2023-01-21T05:40:32.709Z,1027.833693376
2023-01-21T05:41:32.829Z,1027.93528474
2023-01-21T05:42:32.710Z,1027.833693376
2023-01-21T05:43:32.737Z,1027.93528474
2023-01-21T05:44:32.687Z,1028.036876104
2023-01-21T05:45:32.745Z,1027.833693376
2023-01-21T05:46:32.706Z,1027.833693376
2023-01-21T05:47:32.745Z,1028.036876104
2023-01-21T05:48:32.713Z,1027.93528474
2023-01-21T05:49:32.808Z,1028.036876104
2023-01-21T05:50:32.739Z,1028.036876104
2023-01-21T05:51:32.740Z,1028.036876104
2023-01-21T05:52:32.709Z,1027.833693376
2023-01-21T05:53:32.796Z,1028.138467468
2023-01-21T05:54:32.705Z,1028.138467468
2023-01-21T05:55:32.739Z,1028.2400588320002
2023-01-21T05:56:32.719Z,1028.138467468
2023-01-21T05:57:32.764Z,1028.138467468
2023-01-21T05:58:32.719Z,1028.2400588320002
2023-01-21T05:59:32.723Z,1028.3077864079999
2023-01-21T06:00:32.697Z,1028.3077864079999
2023-01-21T06:01:32.720Z,1028.138467468
2023-01-21T06:02:32.807Z,1028.036876104
2023-01-21T06:03:32.793Z,1028.138467468
2023-01-21T06:04:32.684Z,1028.138467468
2023-01-21T06:05:32.786Z,1028.138467468
2023-01-21T06:06:32.707Z,1028.138467468
2023-01-21T06:07:32.744Z,1028.036876104
2023-01-21T06:08:32.689Z,1028.2400588320002
2023-01-21T06:09:32.744Z,1028.2400588320002
2023-01-21T06:10:32.689Z,1028.2400588320002
2023-01-21T06:11:32.777Z,1028.409377772
2023-01-21T06:12:32.712Z,1028.138467468
2023-01-21T06:13:32.746Z,1028.2400588320002
2023-01-21T06:14:32.684Z,1028.036876104
2023-01-21T06:15:32.775Z,1028.409377772
2023-01-21T06:16:32.744Z,1028.5109691359999
2023-01-21T06:17:32.719Z,1028.409377772
2023-01-21T06:18:32.715Z,1028.2400588320002
2023-01-21T06:19:32.723Z,1028.409377772
2023-01-21T06:20:32.690Z,1028.409377772
2023-01-21T06:21:32.716Z,1028.409377772
2023-01-21T06:22:32.695Z,1028.3077864079999
2023-01-21T06:23:32.736Z,1028.5109691359999
2023-01-21T06:24:32.703Z,1028.409377772
2023-01-21T06:25:32.714Z,1028.409377772
2023-01-21T06:26:32.732Z,1028.5109691359999
2023-01-21T06:27:32.757Z,1028.409377772
2023-01-21T06:28:32.719Z,1028.3077864079999
2023-01-21T06:29:32.732Z,1028.409377772
2023-01-21T06:30:32.720Z,1028.5109691359999
2023-01-21T06:31:32.840Z,1028.409377772
2023-01-21T06:32:32.693Z,1028.714151864
2023-01-21T06:33:32.729Z,1028.5109691359999
2023-01-21T06:34:32.720Z,1028.6125605
2023-01-21T06:35:32.760Z,1028.409377772
2023-01-21T06:36:32.673Z,1028.409377772
2023-01-21T06:37:32.699Z,1028.6125605
2023-01-21T06:38:32.695Z,1028.714151864
2023-01-21T06:39:32.736Z,1028.5109691359999
2023-01-21T06:40:32.740Z,1028.714151864
2023-01-21T06:41:32.721Z,1028.714151864
2023-01-21T06:42:32.689Z,1028.714151864
2023-01-21T06:43:32.705Z,1028.6125605
2023-01-21T06:44:32.695Z,1028.815743228
2023-01-21T06:45:32.721Z,1028.815743228
2023-01-21T06:46:32.887Z,1028.815743228
2023-01-21T06:47:32.732Z,1028.3077864079999
2023-01-21T06:48:32.726Z,1028.815743228
2023-01-21T06:49:32.714Z,1028.815743228
2023-01-21T06:50:32.696Z,1028.5109691359999
2023-01-21T06:51:32.751Z,1028.5109691359999
2023-01-21T06:52:32.759Z,1028.5109691359999
2023-01-21T06:53:32.736Z,1028.6125605
2023-01-21T06:54:32.719Z,1028.6125605
2023-01-21T06:55:32.742Z,1028.714151864
2023-01-21T06:56:32.738Z,1028.6125605
2023-01-21T06:57:32.712Z,1028.9173345919999
2023-01-21T06:58:32.720Z,1028.5109691359999
2023-01-21T06:59:32.763Z,1028.714151864
2023-01-21T07:00:32.715Z,1028.815743228
2023-01-21T07:01:32.996Z,1028.6125605
2023-01-21T07:02:32.760Z,1028.6125605
2023-01-21T07:03:32.710Z,1028.815743228
2023-01-21T07:04:32.756Z,1028.714151864
2023-01-21T07:05:32.753Z,1028.6125605
2023-01-21T07:06:32.753Z,1028.714151864
2023-01-21T07:07:32.727Z,1028.9173345919999
2023-01-21T07:08:32.773Z,1028.714151864
2023-01-21T07:09:32.736Z,1028.6125605
2023-01-21T07:10:32.710Z,1028.9173345919999
2023-01-21T07:11:32.699Z,1028.9173345919999
2023-01-21T07:12:32.721Z,1028.6125605
2023-01-21T07:13:32.754Z,1029.12051732
2023-01-21T07:14:32.709Z,1028.9173345919999
2023-01-21T07:15:32.737Z,1029.018925956
2023-01-21T07:16:32.742Z,1028.815743228
2023-01-21T07:17:32.762Z,1028.815743228
2023-01-21T07:18:32.734Z,1028.9173345919999
2023-01-21T07:19:32.763Z,1028.815743228
2023-01-21T07:20:32.724Z,1028.815743228
2023-01-21T07:21:32.744Z,1029.018925956
2023-01-21T07:22:32.699Z,1029.018925956
2023-01-21T07:23:32.714Z,1029.018925956
2023-01-21T07:24:32.727Z,1029.018925956
2023-01-21T07:25:32.710Z,1029.12051732
2023-01-21T07:26:32.700Z,1029.018925956
2023-01-21T07:27:32.696Z,1029.018925956
2023-01-21T07:28:32.718Z,1029.018925956
2023-01-21T07:29:32.714Z,1029.222108684
2023-01-21T07:30:32.706Z,1029.018925956
2023-01-21T07:31:32.841Z,1029.222108684
2023-01-21T07:32:32.710Z,1029.12051732
2023-01-21T07:33:32.760Z,1029.12051732
2023-01-21T07:34:32.708Z,1029.323700048
2023-01-21T07:35:32.705Z,1029.018925956
2023-01-21T07:36:32.727Z,1029.12051732
2023-01-21T07:37:32.793Z,1029.12051732
2023-01-21T07:38:32.740Z,1029.12051732
2023-01-21T07:39:32.732Z,1029.12051732
2023-01-21T07:40:32.723Z,1029.12051732
2023-01-21T07:41:32.712Z,1029.425291412
2023-01-21T07:42:32.691Z,1029.12051732
2023-01-21T07:43:32.742Z,1029.222108684
2023-01-21T07:44:32.737Z,1029.222108684
2023-01-21T07:45:32.775Z,1029.12051732
2023-01-21T07:46:32.795Z,1029.12051732
2023-01-21T07:47:32.710Z,1029.425291412
2023-01-21T07:48:32.737Z,1029.526882776
2023-01-21T07:49:32.845Z,1029.62847414
2023-01-21T07:50:32.733Z,1029.62847414
2023-01-21T07:51:32.707Z,1029.425291412
2023-01-21T07:52:32.719Z,1029.730065504
2023-01-21T07:53:32.720Z,1029.831656868
2023-01-21T07:54:32.704Z,1028.815743228
2023-01-21T07:55:32.721Z,1029.018925956
2023-01-21T07:56:32.710Z,1028.815743228
2023-01-21T07:57:32.749Z,1028.815743228
2023-01-21T07:58:32.740Z,1028.815743228
2023-01-21T07:59:32.704Z,1028.9173345919999
2023-01-21T08:00:32.763Z,1028.714151864
2023-01-21T08:01:32.865Z,1029.018925956
2023-01-21T08:02:32.949Z,1028.714151864
2023-01-21T08:03:32.759Z,1029.323700048
2023-01-21T08:04:32.756Z,1029.323700048
2023-01-21T08:05:32.747Z,1029.62847414
2023-01-21T08:06:32.744Z,1029.425291412
2023-01-21T08:07:32.686Z,1029.425291412
2023-01-21T08:08:32.767Z,1029.62847414
2023-01-21T08:09:32.729Z,1029.62847414
2023-01-21T08:10:32.743Z,1029.831656868
2023-01-21T08:11:32.703Z,1029.425291412
2023-01-21T08:12:32.674Z,1029.425291412
2023-01-21T08:13:32.757Z,1029.526882776
2023-01-21T08:14:32.709Z,1029.526882776
2023-01-21T08:15:32.733Z,1029.425291412
2023-01-21T08:16:32.765Z,1029.730065504
2023-01-21T08:17:32.777Z,1029.831656868
2023-01-21T08:18:32.718Z,1029.62847414
2023-01-21T08:19:32.761Z,1029.62847414
2023-01-21T08:20:32.752Z,1029.730065504
2023-01-21T08:21:32.736Z,1029.831656868
2023-01-21T08:22:32.697Z,1029.62847414
2023-01-21T08:23:32.717Z,1029.730065504
2023-01-21T08:24:32.718Z,1029.933248232
2023-01-21T08:25:32.714Z,1029.730065504
2023-01-21T08:26:32.726Z,1029.730065504
2023-01-21T08:27:32.711Z,1029.62847414
2023-01-21T08:28:32.705Z,1029.62847414
2023-01-21T08:29:32.728Z,1029.730065504
2023-01-21T08:30:32.827Z,1029.831656868
2023-01-21T08:31:32.713Z,1029.730065504
2023-01-21T08:32:32.699Z,1029.730065504
2023-01-21T08:33:32.732Z,1029.62847414
2023-01-21T08:34:32.700Z,1029.831656868
2023-01-21T08:35:32.705Z,1029.831656868
2023-01-21T08:36:32.709Z,1029.526882776
2023-01-21T08:37:32.735Z,1029.730065504
2023-01-21T08:38:32.709Z,1029.730065504
2023-01-21T08:39:32.682Z,1029.62847414
2023-01-21T08:40:32.724Z,1029.526882776
2023-01-21T08:41:32.723Z,1029.730065504
2023-01-21T08:42:32.703Z,1029.831656868
2023-01-21T08:43:32.687Z,1029.62847414
2023-01-21T08:44:32.684Z,1029.730065504
2023-01-21T08:45:32.742Z,1029.62847414
2023-01-21T08:46:32.702Z,1029.933248232
2023-01-21T08:47:32.701Z,1029.730065504
2023-01-21T08:48:32.686Z,1029.526882776
2023-01-21T08:49:32.725Z,1029.831656868
2023-01-21T08:50:32.699Z,1029.730065504
2023-01-21T08:51:32.748Z,1030.034839596
2023-01-21T08:52:32.697Z,1029.730065504
2023-01-21T08:53:32.777Z,1029.933248232
2023-01-21T08:54:32.689Z,1029.831656868
2023-01-21T08:55:32.695Z,1029.933248232
2023-01-21T08:56:32.780Z,1029.933248232
2023-01-21T08:57:32.730Z,1030.13643096
2023-01-21T08:58:32.815Z,1029.831656868
2023-01-21T08:59:32.704Z,1030.034839596
2023-01-21T09:00:32.703Z,1030.13643096
2023-01-21T09:01:32.705Z,1029.933248232
2023-01-21T09:02:32.715Z,1030.034839596
2023-01-21T09:03:32.697Z,1030.13643096
2023-01-21T09:04:32.675Z,1029.933248232
2023-01-21T09:05:32.755Z,1030.034839596
2023-01-21T09:06:32.727Z,1030.238022324
2023-01-21T09:07:32.684Z,1030.13643096
2023-01-21T09:08:32.732Z,1030.13643096
2023-01-21T09:09:32.695Z,1030.238022324
2023-01-21T09:10:32.730Z,1029.831656868
2023-01-21T09:11:32.768Z,1030.13643096
2023-01-21T09:12:32.702Z,1030.034839596
2023-01-21T09:13:32.752Z,1030.238022324
2023-01-21T09:14:32.717Z,1030.034839596
2023-01-21T09:15:32.719Z,1030.034839596
2023-01-21T09:16:32.840Z,1030.034839596
2023-01-21T09:17:32.716Z,1030.034839596
2023-01-21T09:18:32.676Z,1029.933248232
2023-01-21T09:19:32.827Z,1030.13643096
2023-01-21T09:20:32.722Z,1030.238022324
2023-01-21T09:21:32.783Z,1030.238022324
2023-01-21T09:22:32.710Z,1030.13643096
2023-01-21T09:23:32.683Z,1030.238022324
2023-01-21T09:24:32.699Z,1030.238022324
2023-01-21T09:25:32.689Z,1030.238022324
2023-01-21T09:26:32.704Z,1030.238022324
2023-01-21T09:27:32.715Z,1030.238022324
2023-01-21T09:28:32.675Z,1030.3396136879999
2023-01-21T09:29:32.730Z,1030.5089326280001
2023-01-21T09:30:32.736Z,1030.3396136879999
2023-01-21T09:31:32.908Z,1030.238022324
2023-01-21T09:32:32.720Z,1030.407341264
2023-01-21T09:33:32.698Z,1030.5089326280001
2023-01-21T09:34:35.434Z,1030.3396136879999
2023-01-21T09:35:32.691Z,1030.5089326280001
2023-01-21T09:36:32.706Z,1030.5089326280001
2023-01-21T09:37:32.703Z,1030.610523992
2023-01-21T09:38:32.710Z,1030.81370672
2023-01-21T09:39:32.694Z,1030.610523992
2023-01-21T09:40:32.686Z,1030.712115356
2023-01-21T09:41:32.703Z,1030.5089326280001
2023-01-21T09:42:32.722Z,1030.3396136879999
2023-01-21T09:43:32.767Z,1030.5089326280001
2023-01-21T09:44:32.703Z,1030.610523992
2023-01-21T09:45:32.746Z,1030.5089326280001
2023-01-21T09:46:32.686Z,1030.5089326280001
2023-01-21T09:47:32.714Z,1030.5089326280001
2023-01-21T09:48:32.662Z,1030.610523992